Ashland, Montana
Current Conditions -  °F | °C
As of 9:01 AM on Wednesday 26 Nov 2014 (Local Time) from KMLS Reporting Station
Light Snow Light Snow  
Wind Chill: 19°   Ceiling: 600
Heat Index: 27°   Visibility: 2.5mi
Dew Point: 25°   Wind: 7mph
Humidity: 92%   Direction: 30°NNE
Pressure: 30.24"   Gusts: NA
Location:  45.62°N, 106.31°W
Report Text: KMLS 261601Z AUTO 03006KT 2 1/2SM -SN BR OVC006 M03/M04 A3024 RMK AO2 CIG 004V008 P0000 T10281039
Loading
Personal Weather Stations






























Interactive Weather Map New forecast layout! Learn more

10-Day Weather Forecast

Advertisements
Track Severe Weather on mobile